createdAt,value
2019-02-16T00:00:26.550Z,5.17
2019-02-16T00:02:55.806Z,5.40
2019-02-16T00:05:24.977Z,6.40
2019-02-16T00:07:54.221Z,6.07
2019-02-16T00:10:23.415Z,7.47
2019-02-16T00:12:52.676Z,5.70
2019-02-16T00:15:21.935Z,6.40
2019-02-16T00:17:51.123Z,6.00
2019-02-16T00:20:20.347Z,7.07
2019-02-16T00:22:49.566Z,5.67
2019-02-16T00:25:18.820Z,5.83
2019-02-16T00:27:48.071Z,6.20
2019-02-16T00:30:17.342Z,6.47
2019-02-16T00:32:46.683Z,6.43
2019-02-16T00:35:15.944Z,6.53
2019-02-16T00:37:45.276Z,6.70
2019-02-16T00:40:14.552Z,5.83
2019-02-16T00:42:43.700Z,6.27
2019-02-16T00:45:12.959Z,6.13
2019-02-16T00:47:42.258Z,6.13
2019-02-16T00:50:11.516Z,6.20
2019-02-16T00:52:40.674Z,5.57
2019-02-16T00:55:09.847Z,6.17
2019-02-16T00:57:38.995Z,5.70
2019-02-16T01:00:09.816Z,6.37
2019-02-16T01:02:39.044Z,5.73
2019-02-16T01:05:08.325Z,6.00
2019-02-16T01:07:37.579Z,6.73
2019-02-16T01:10:07.661Z,6.63
2019-02-16T01:12:36.896Z,6.53
2019-02-16T01:15:07.787Z,7.33
2019-02-16T01:17:37.024Z,7.80
2019-02-16T01:20:08.566Z,7.03
2019-02-16T01:22:37.824Z,6.70
2019-02-16T01:25:07.402Z,7.10
2019-02-16T01:27:36.663Z,6.87
2019-02-16T01:30:08.299Z,6.43
2019-02-16T01:32:37.627Z,6.33
2019-02-16T01:35:07.705Z,7.37
2019-02-16T01:37:37.038Z,6.93
2019-02-16T01:40:08.715Z,6.93
2019-02-16T01:42:38.050Z,6.43
2019-02-16T01:45:08.907Z,7.83
2019-02-16T01:47:38.163Z,7.07
2019-02-16T01:50:08.604Z,7.33
2019-02-16T01:52:37.939Z,7.63
2019-02-16T01:55:09.176Z,7.60
2019-02-16T01:57:38.434Z,7.67
2019-02-16T02:00:09.271Z,7.93
2019-02-16T02:02:38.543Z,7.50
2019-02-16T02:05:08.492Z,7.27
2019-02-16T02:07:37.796Z,7.43
2019-02-16T02:10:08.245Z,7.37
2019-02-16T02:12:37.500Z,7.23
2019-02-16T02:15:07.451Z,7.37
2019-02-16T02:17:36.717Z,9.20
2019-02-16T02:20:06.435Z,8.00
2019-02-16T02:22:35.723Z,7.93
2019-02-16T02:25:05.575Z,8.27
2019-02-16T02:27:34.808Z,6.57
2019-02-16T02:30:04.620Z,7.57
2019-02-16T02:32:33.858Z,8.10
2019-02-16T02:35:03.115Z,7.70
2019-02-16T02:37:32.297Z,8.07
2019-02-16T02:40:01.598Z,7.70
2019-02-16T02:42:30.956Z,8.23
2019-02-16T02:45:00.397Z,7.47
2019-02-16T02:47:29.672Z,7.67
2019-02-16T02:49:59.017Z,7.13
2019-02-16T02:52:28.168Z,7.10
2019-02-16T02:54:57.344Z,6.73
2019-02-16T02:57:26.575Z,7.47
2019-02-16T02:59:55.828Z,7.40
2019-02-16T03:02:25.055Z,7.57
2019-02-16T03:04:54.307Z,7.87
2019-02-16T03:07:23.549Z,7.50
2019-02-16T03:09:52.739Z,7.70
2019-02-16T03:12:21.971Z,8.37
2019-02-16T03:14:51.195Z,7.67
2019-02-16T03:17:20.464Z,8.27
2019-02-16T03:19:49.779Z,8.20
2019-02-16T03:22:19.053Z,8.90
2019-02-16T03:24:48.328Z,8.37
2019-02-16T03:27:57.084Z,7.37
2019-02-16T03:30:59.049Z,7.80
2019-02-16T03:33:58.843Z,7.40
2019-02-16T03:37:00.423Z,7.73
2019-02-16T03:39:32.655Z,7.97
2019-02-16T03:42:01.845Z,7.77
2019-02-16T03:44:31.279Z,7.63
2019-02-16T03:47:00.498Z,7.43
2019-02-16T03:49:29.765Z,7.40
2019-02-16T03:51:59.119Z,7.40
2019-02-16T03:54:28.345Z,7.40
2019-02-16T03:56:57.528Z,7.50
2019-02-16T03:59:26.719Z,7.50
2019-02-16T04:01:55.937Z,6.93
2019-02-16T04:04:25.190Z,7.60
2019-02-16T04:06:54.383Z,7.30
2019-02-16T04:09:23.614Z,7.40
2019-02-16T04:11:52.944Z,7.13
2019-02-16T04:14:22.171Z,8.00
2019-02-16T04:16:51.365Z,8.00
2019-02-16T04:19:20.668Z,7.23
2019-02-16T04:21:49.954Z,7.00
2019-02-16T04:24:19.219Z,6.70
2019-02-16T04:26:48.444Z,7.43
2019-02-16T04:29:17.695Z,7.03
2019-02-16T04:31:47.053Z,6.97
2019-02-16T04:34:16.444Z,7.43
2019-02-16T04:36:45.608Z,7.63
2019-02-16T04:39:14.874Z,7.97
2019-02-16T04:41:44.036Z,7.00
2019-02-16T04:44:13.304Z,7.13
2019-02-16T04:46:42.598Z,6.77
2019-02-16T04:49:11.866Z,7.50
2019-02-16T04:51:41.104Z,6.57
2019-02-16T04:54:10.429Z,7.27
2019-02-16T04:56:39.680Z,6.60
2019-02-16T04:59:08.851Z,7.17
2019-02-16T05:01:38.167Z,7.37
2019-02-16T05:04:07.418Z,7.83
2019-02-16T05:06:36.650Z,7.07
2019-02-16T05:09:07.425Z,6.83
2019-02-16T05:11:36.771Z,8.47
2019-02-16T05:14:06.062Z,8.37
2019-02-16T05:16:35.312Z,7.77
2019-02-16T05:19:04.524Z,7.63
2019-02-16T05:21:33.858Z,7.27
2019-02-16T05:24:03.018Z,8.10
2019-02-16T05:26:32.191Z,8.37
2019-02-16T05:29:01.344Z,7.30
2019-02-16T05:31:30.608Z,7.23
2019-02-16T05:33:59.835Z,7.47
2019-02-16T05:36:29.085Z,7.30
2019-02-16T05:38:58.283Z,7.30
2019-02-16T05:41:27.515Z,8.07
2019-02-16T05:43:56.751Z,7.90
2019-02-16T05:46:25.932Z,6.93
2019-02-16T05:48:55.148Z,7.10
2019-02-16T05:51:24.411Z,7.57
2019-02-16T05:53:53.634Z,7.03
2019-02-16T05:56:22.808Z,7.37
2019-02-16T05:58:52.043Z,7.80
2019-02-16T06:01:21.304Z,7.07
2019-02-16T06:03:50.527Z,7.83
2019-02-16T06:06:19.796Z,8.10
2019-02-16T06:08:49.099Z,7.30
2019-02-16T06:11:18.267Z,7.77
2019-02-16T06:13:47.587Z,7.00
2019-02-16T06:16:16.963Z,6.77
2019-02-16T06:18:46.223Z,8.27
2019-02-16T06:21:15.380Z,8.20
2019-02-16T06:23:44.566Z,8.00
2019-02-16T06:26:13.802Z,7.90
2019-02-16T06:28:43.145Z,8.13
2019-02-16T06:31:12.378Z,8.20
2019-02-16T06:33:41.710Z,9.37
2019-02-16T06:36:16.754Z,9.97
2019-02-16T06:38:46.115Z,8.40
2019-02-16T06:41:15.340Z,8.07
2019-02-16T06:43:44.669Z,9.50
2019-02-16T06:46:13.979Z,10.07
2019-02-16T06:48:43.163Z,9.80
2019-02-16T06:51:12.399Z,9.33
2019-02-16T06:53:41.730Z,8.20
2019-02-16T06:56:19.115Z,7.90
2019-02-16T06:58:48.315Z,9.20
2019-02-16T07:01:17.643Z,9.67
2019-02-16T07:03:46.961Z,8.17
2019-02-16T07:06:16.180Z,8.60
2019-02-16T07:08:45.394Z,9.17
2019-02-16T07:11:14.700Z,7.93
2019-02-16T07:13:44.004Z,9.97
2019-02-16T07:16:30.904Z,10.30
2019-02-16T07:19:07.749Z,10.57
2019-02-16T07:21:37.111Z,10.60
2019-02-16T07:24:06.523Z,11.87
2019-02-16T07:26:35.830Z,9.00
2019-02-16T07:29:05.119Z,8.77
2019-02-16T07:31:34.380Z,8.67
2019-02-16T07:34:03.689Z,10.77
2019-02-16T07:36:33.039Z,10.27
2019-02-16T07:39:02.431Z,10.50
2019-02-16T07:41:31.724Z,10.43
2019-02-16T07:44:14.868Z,9.07
2019-02-16T07:47:09.008Z,10.67
2019-02-16T07:49:56.026Z,9.70
2019-02-16T07:52:30.990Z,23.17
2019-02-16T07:55:04.775Z,22.80
2019-02-16T07:58:02.188Z,12.07
2019-02-16T08:00:58.290Z,13.27
2019-02-16T08:03:37.756Z,11.03
2019-02-16T08:06:22.011Z,13.17
2019-02-16T08:09:07.971Z,9.43
2019-02-16T08:11:49.663Z,9.23
2019-02-16T08:14:40.631Z,7.97
2019-02-16T08:17:37.887Z,9.43
2019-02-16T08:20:23.993Z,13.10
2019-02-16T08:23:11.421Z,11.90
2019-02-16T08:26:08.540Z,9.57
2019-02-16T08:28:59.088Z,11.10
2019-02-16T08:31:46.125Z,10.73
2019-02-16T08:34:40.374Z,10.00
2019-02-16T08:37:24.535Z,10.53
2019-02-16T08:40:19.068Z,11.10
2019-02-16T08:43:07.303Z,10.67
2019-02-16T08:46:11.025Z,10.87
2019-02-16T08:49:08.224Z,10.87
2019-02-16T08:51:55.603Z,10.93
2019-02-16T08:54:42.708Z,10.83
2019-02-16T08:57:24.459Z,10.80
2019-02-16T09:00:11.462Z,10.67
2019-02-16T09:03:02.996Z,10.97
2019-02-16T09:05:45.478Z,10.67
2019-02-16T09:08:40.448Z,11.30
2019-02-16T09:11:34.992Z,12.23
2019-02-16T09:14:16.682Z,10.97
2019-02-16T09:17:11.028Z,10.37
2019-02-16T09:19:55.027Z,10.73
2019-02-16T09:22:43.248Z,12.13
2019-02-16T09:25:27.888Z,11.63
2019-02-16T09:28:16.100Z,10.83
2019-02-16T09:31:07.419Z,11.48
2019-02-16T09:33:43.829Z,11.27
2019-02-16T09:36:26.723Z,12.10
2019-02-16T09:39:10.187Z,11.33
2019-02-16T09:41:47.742Z,9.60
2019-02-16T09:44:39.004Z,11.37
2019-02-16T09:47:17.408Z,9.83
2019-02-16T09:50:04.272Z,12.37
2019-02-16T09:53:01.870Z,11.73
2019-02-16T09:55:48.852Z,11.73
2019-02-16T09:58:40.304Z,10.03
2019-02-16T10:01:27.865Z,12.90
2019-02-16T10:04:15.376Z,12.93
2019-02-16T10:07:12.754Z,10.70
2019-02-16T10:09:59.659Z,13.80
2019-02-16T10:12:41.925Z,12.87
2019-02-16T10:15:27.540Z,13.23
2019-02-16T10:18:10.508Z,16.20
2019-02-16T10:21:02.191Z,14.83
2019-02-16T10:23:49.346Z,16.17
2019-02-16T10:26:27.686Z,21.87
2019-02-16T10:29:14.855Z,19.50
2019-02-16T10:32:05.955Z,20.63
2019-02-16T10:34:54.216Z,32.47
2019-02-16T10:37:54.611Z,30.37
2019-02-16T10:40:41.476Z,32.97
2019-02-16T10:43:29.696Z,25.80
2019-02-16T10:46:16.651Z,22.83
2019-02-16T10:49:07.856Z,18.47
2019-02-16T10:52:05.077Z,15.20
2019-02-16T10:54:59.541Z,18.80
2019-02-16T10:57:50.528Z,15.90
2019-02-16T11:00:31.994Z,15.60
2019-02-16T11:03:19.066Z,15.13
2019-02-16T11:06:00.706Z,14.60
2019-02-16T11:08:58.055Z,14.43
2019-02-16T11:11:34.223Z,15.73
2019-02-16T11:14:14.861Z,14.53
2019-02-16T11:17:09.167Z,15.70
2019-02-16T11:20:08.322Z,13.80
2019-02-16T11:22:45.352Z,14.40
2019-02-16T11:25:32.367Z,14.50
2019-02-16T11:28:29.873Z,14.03
2019-02-16T11:31:11.828Z,14.57
2019-02-16T11:34:09.127Z,15.30
2019-02-16T11:37:09.420Z,15.57
2019-02-16T11:39:57.631Z,15.23
2019-02-16T11:42:35.235Z,16.00
2019-02-16T11:45:33.492Z,16.27
2019-02-16T11:48:24.755Z,15.83
2019-02-16T11:51:11.688Z,17.47
2019-02-16T11:53:51.705Z,15.90
2019-02-16T11:56:46.233Z,16.27
2019-02-16T11:59:25.697Z,16.40
2019-02-16T12:02:19.844Z,16.67
2019-02-16T12:04:56.959Z,16.97
2019-02-16T12:07:40.248Z,16.40
2019-02-16T12:10:29.047Z,19.10
2019-02-16T12:13:11.993Z,16.70
2019-02-16T12:16:00.255Z,16.77
2019-02-16T12:18:47.418Z,18.00
2019-02-16T12:21:49.294Z,16.43
2019-02-16T12:24:27.172Z,17.13
2019-02-16T12:27:14.263Z,17.23
2019-02-16T12:30:14.867Z,16.77
2019-02-16T12:33:06.045Z,17.30
2019-02-16T12:35:54.231Z,17.73
2019-02-16T12:38:35.015Z,17.70
2019-02-16T12:41:32.226Z,17.53
2019-02-16T12:44:29.649Z,17.63
2019-02-16T12:47:32.952Z,16.90
2019-02-16T12:50:23.951Z,17.47
2019-02-16T12:53:17.954Z,17.77
2019-02-16T12:55:55.349Z,17.60
2019-02-16T12:58:46.399Z,17.40
2019-02-16T13:01:33.163Z,17.80
2019-02-16T13:04:21.530Z,17.67
2019-02-16T13:07:09.753Z,18.50
2019-02-16T13:09:46.438Z,17.27
2019-02-16T13:12:21.858Z,17.73
2019-02-16T13:15:10.084Z,18.23
2019-02-16T13:17:52.004Z,17.77
2019-02-16T13:20:32.386Z,17.07
2019-02-16T13:23:13.456Z,17.57
2019-02-16T13:25:56.700Z,17.70
2019-02-16T13:28:43.895Z,17.37
2019-02-16T13:31:27.416Z,17.63
2019-02-16T13:34:14.343Z,17.83
2019-02-16T13:37:07.075Z,17.33
2019-02-16T13:39:53.999Z,17.20
2019-02-16T13:42:44.203Z,17.43
2019-02-16T13:45:29.068Z,16.93
2019-02-16T13:48:10.019Z,17.07
2019-02-16T13:50:43.632Z,16.57
2019-02-16T13:53:35.667Z,17.07
2019-02-16T13:56:23.915Z,17.77
2019-02-16T13:59:11.209Z,17.60
2019-02-16T14:01:58.247Z,17.27
2019-02-16T14:04:46.478Z,17.03
2019-02-16T14:07:49.863Z,16.87
2019-02-16T14:10:53.460Z,16.97
2019-02-16T14:13:32.800Z,17.13
2019-02-16T14:16:23.768Z,16.37
2019-02-16T14:18:53.013Z,17.47
2019-02-16T14:21:22.276Z,17.73
2019-02-16T14:23:51.544Z,17.33
2019-02-16T14:26:20.752Z,18.27
2019-02-16T14:28:49.977Z,16.83
2019-02-16T14:31:28.073Z,16.90
2019-02-16T14:33:50.234Z,17.10
2019-02-16T14:36:19.481Z,17.37
2019-02-16T14:38:54.380Z,18.13
2019-02-16T14:41:23.635Z,17.40
2019-02-16T14:43:52.985Z,17.93
2019-02-16T14:46:22.221Z,17.20
2019-02-16T14:48:51.409Z,17.57
2019-02-16T14:51:20.639Z,17.70
2019-02-16T14:53:49.981Z,18.60
2019-02-16T14:56:19.273Z,18.53
2019-02-16T14:58:48.612Z,18.37
2019-02-16T15:01:17.847Z,18.07
2019-02-16T15:03:47.387Z,18.80
2019-02-16T15:06:16.643Z,17.87
2019-02-16T15:08:45.870Z,18.73
2019-02-16T15:11:15.196Z,18.53
2019-02-16T15:13:45.121Z,19.73
2019-02-16T15:16:14.508Z,18.20
2019-02-16T15:18:43.734Z,18.90
2019-02-16T15:21:12.924Z,19.23
2019-02-16T15:23:42.151Z,19.87
2019-02-16T15:26:11.415Z,18.97
2019-02-16T15:28:40.570Z,19.80
2019-02-16T15:31:09.923Z,19.30
2019-02-16T15:33:39.075Z,19.57
2019-02-16T15:36:08.346Z,19.93
2019-02-16T15:38:37.571Z,19.33
2019-02-16T15:41:06.882Z,19.73
2019-02-16T15:43:36.208Z,19.77
2019-02-16T15:46:05.471Z,20.40
2019-02-16T15:48:34.640Z,19.47
2019-02-16T15:51:03.915Z,19.47
2019-02-16T15:53:33.144Z,20.27
2019-02-16T15:56:10.103Z,19.53
2019-02-16T15:58:33.307Z,19.37
2019-02-16T16:01:03.700Z,21.50
2019-02-16T16:03:33.746Z,20.13
2019-02-16T16:06:03.634Z,19.90
2019-02-16T16:08:39.607Z,19.87
2019-02-16T16:11:34.101Z,20.20
2019-02-16T16:14:15.864Z,21.17
2019-02-16T16:16:52.456Z,20.60
2019-02-16T16:19:28.207Z,21.23
2019-02-16T16:22:10.182Z,21.57
2019-02-16T16:25:03.363Z,22.43
2019-02-16T16:27:41.539Z,21.70
2019-02-16T16:30:29.759Z,21.13
2019-02-16T16:33:24.004Z,21.53
2019-02-16T16:36:07.944Z,22.03
2019-02-16T16:38:54.843Z,23.50
2019-02-16T16:41:30.103Z,22.23
2019-02-16T16:44:15.440Z,24.43
2019-02-16T16:46:52.485Z,24.93
2019-02-16T16:49:50.134Z,25.37
2019-02-16T16:52:44.679Z,25.13
2019-02-16T16:55:35.803Z,24.77
2019-02-16T16:58:15.449Z,23.40
2019-02-16T17:01:02.382Z,24.90
2019-02-16T17:03:41.058Z,24.40
2019-02-16T17:06:34.955Z,23.53
2019-02-16T17:09:18.791Z,25.10
2019-02-16T17:12:19.327Z,23.53
2019-02-16T17:14:57.095Z,24.17
2019-02-16T17:17:33.923Z,23.50
2019-02-16T17:20:28.183Z,24.30
2019-02-16T17:23:18.687Z,27.00
2019-02-16T17:26:12.281Z,26.73
2019-02-16T17:29:00.059Z,22.50
2019-02-16T17:31:51.037Z,24.63
2019-02-16T17:34:39.223Z,28.93
2019-02-16T17:37:27.454Z,26.47
2019-02-16T17:40:14.439Z,32.73
2019-02-16T17:43:02.325Z,30.17
2019-02-16T17:45:49.575Z,24.50
2019-02-16T17:48:36.642Z,25.30
2019-02-16T17:51:21.931Z,20.13
2019-02-16T17:54:07.881Z,23.30
2019-02-16T17:57:00.476Z,19.63
2019-02-16T17:59:44.009Z,27.20
2019-02-16T18:02:35.250Z,24.97
2019-02-16T18:05:20.768Z,29.30
2019-02-16T18:08:27.183Z,24.30
2019-02-16T18:11:24.556Z,19.47
2019-02-16T18:14:12.739Z,23.77
2019-02-16T18:17:00.060Z,24.13
2019-02-16T18:19:35.218Z,21.23
2019-02-16T18:22:10.266Z,23.00
2019-02-16T18:24:58.581Z,22.43
2019-02-16T18:27:52.893Z,20.03
2019-02-16T18:30:40.024Z,19.47
2019-02-16T18:33:40.578Z,23.20
2019-02-16T18:36:27.832Z,20.10
2019-02-16T18:39:19.104Z,24.33
2019-02-16T18:42:10.131Z,24.17
2019-02-16T18:45:01.402Z,26.47
2019-02-16T18:47:37.987Z,21.83
2019-02-16T18:50:20.060Z,25.60
2019-02-16T18:53:08.311Z,22.57
2019-02-16T18:56:02.397Z,22.20
2019-02-16T18:58:46.867Z,24.10
2019-02-16T19:01:42.051Z,23.13
2019-02-16T19:04:33.291Z,23.17
2019-02-16T19:07:11.154Z,22.00
2019-02-16T19:09:48.854Z,25.10
2019-02-16T19:12:39.863Z,23.30
2019-02-16T19:15:25.721Z,26.17
2019-02-16T19:18:23.590Z,25.57
2019-02-16T19:21:23.827Z,24.20
2019-02-16T19:24:14.992Z,24.40
2019-02-16T19:27:16.434Z,25.30
2019-02-16T19:30:02.277Z,23.67
2019-02-16T19:33:05.617Z,25.37
2019-02-16T19:36:02.809Z,24.97
2019-02-16T19:38:51.026Z,26.33
2019-02-16T19:41:38.328Z,26.33
2019-02-16T19:44:24.295Z,22.00
2019-02-16T19:47:04.568Z,23.97
2019-02-16T19:49:47.241Z,22.70
2019-02-16T19:52:34.198Z,26.37
2019-02-16T19:55:22.423Z,23.20
2019-02-16T19:58:13.703Z,25.10
2019-02-16T20:01:07.774Z,25.73
2019-02-16T20:03:59.042Z,22.43
2019-02-16T20:06:53.228Z,26.13
2019-02-16T20:09:47.515Z,23.07
2019-02-16T20:12:25.377Z,24.90
2019-02-16T20:15:19.653Z,22.73
2019-02-16T20:18:06.880Z,25.77
2019-02-16T20:20:53.776Z,26.90
2019-02-16T20:23:40.951Z,22.80
2019-02-16T20:26:29.147Z,26.57
2019-02-16T20:29:17.434Z,25.90
2019-02-16T20:31:54.167Z,22.43
2019-02-16T20:34:41.622Z,25.90
2019-02-16T20:37:30.091Z,21.63
2019-02-16T20:40:08.883Z,25.47
2019-02-16T20:42:46.973Z,22.70
2019-02-16T20:45:21.315Z,24.37
2019-02-16T20:48:12.590Z,25.33
2019-02-16T20:51:06.740Z,21.87
2019-02-16T20:53:54.958Z,24.73
2019-02-16T20:56:42.276Z,21.73
2019-02-16T20:59:45.640Z,26.30
2019-02-16T21:02:52.045Z,21.37
2019-02-16T21:05:40.258Z,25.80
2019-02-16T21:08:28.536Z,21.13
2019-02-16T21:11:10.307Z,24.83
2019-02-16T21:13:50.028Z,21.70
2019-02-16T21:16:36.874Z,25.37
2019-02-16T21:19:28.179Z,22.80
2019-02-16T21:22:22.876Z,24.73
2019-02-16T21:25:00.291Z,24.67
2019-02-16T21:27:58.061Z,24.23
2019-02-16T21:30:52.342Z,24.43
2019-02-16T21:33:29.271Z,25.97
2019-02-16T21:36:20.504Z,26.63
2019-02-16T21:39:07.447Z,25.00
2019-02-16T21:42:01.799Z,24.53
2019-02-16T21:44:50.482Z,24.57
2019-02-16T21:47:33.063Z,25.13
2019-02-16T21:50:12.415Z,24.20
2019-02-16T21:53:21.480Z,23.50
2019-02-16T21:56:07.672Z,23.20
2019-02-16T21:58:54.883Z,23.63
2019-02-16T22:01:38.592Z,23.37
2019-02-16T22:04:16.182Z,24.27
2019-02-16T22:07:03.590Z,25.83
2019-02-16T22:10:00.932Z,24.30
2019-02-16T22:12:45.391Z,26.13
2019-02-16T22:15:14.881Z,26.73
2019-02-16T22:17:44.105Z,24.67
2019-02-16T22:20:13.364Z,22.83
2019-02-16T22:22:42.601Z,23.83
2019-02-16T22:25:11.792Z,24.07
2019-02-16T22:27:40.962Z,22.67
2019-02-16T22:30:10.751Z,24.60
2019-02-16T22:32:40.016Z,24.43
2019-02-16T22:35:09.350Z,23.00
2019-02-16T22:37:38.615Z,22.27
2019-02-16T22:40:08.194Z,24.83
2019-02-16T22:42:37.763Z,23.77
2019-02-16T22:45:07.571Z,23.70
2019-02-16T22:47:36.754Z,24.73
2019-02-16T22:50:07.560Z,23.67
2019-02-16T22:52:36.748Z,22.80
2019-02-16T22:55:06.242Z,23.03
2019-02-16T22:57:35.531Z,22.70
2019-02-16T23:00:08.116Z,25.67
2019-02-16T23:02:37.303Z,26.47
2019-02-16T23:05:06.928Z,24.63
2019-02-16T23:07:36.187Z,24.50
2019-02-16T23:10:07.768Z,24.90
2019-02-16T23:12:37.153Z,24.77
2019-02-16T23:15:08.135Z,24.40
2019-02-16T23:17:37.314Z,24.20
2019-02-16T23:20:08.979Z,23.90
2019-02-16T23:22:38.162Z,25.70
2019-02-16T23:25:07.503Z,26.80
2019-02-16T23:27:36.760Z,24.43
2019-02-16T23:30:06.902Z,24.00
2019-02-16T23:32:36.185Z,25.60
2019-02-16T23:35:05.640Z,24.63
2019-02-16T23:37:34.908Z,25.37
2019-02-16T23:40:04.386Z,25.20
2019-02-16T23:42:34.715Z,24.60
2019-02-16T23:45:04.158Z,24.03
2019-02-16T23:47:33.459Z,23.57
2019-02-16T23:50:02.722Z,22.80
2019-02-16T23:52:31.918Z,23.70
2019-02-16T23:55:01.223Z,24.27
2019-02-16T23:57:30.417Z,25.00
2019-02-16T23:59:59.589Z,24.30
